Malta, Texas
Current Conditions -  °F | °C
As of 10:53 AM on Monday 22 Dec 2014 (Local Time) from KTXK Reporting Station
Haze Haze  
Wind Chill: 54°   Ceiling: 500
Heat Index: 54°   Visibility: 5mi
Dew Point: 52°   Wind: 9mph
Humidity: 93%   Direction: 170°S
Pressure: 29.66"   Gusts: NA
Location:  33.4799°N, 94.4582°W
Report Text: KTXK 221653Z 17008KT 5SM BR OVC005 12/11 A2966 RMK AO2 SLP042 T01220111
Loading
Personal Weather Stations






























Interactive Weather Map New forecast layout! Learn more

10-Day Weather Forecast

Advertisements
Track Severe Weather on mobile